createdAt,value
2023-01-26T00:01:17.033Z,100757.91
2023-01-26T00:03:44.109Z,100753.44
2023-01-26T00:06:12.927Z,100763.66
2023-01-26T00:08:40.768Z,100753.66
2023-01-26T00:11:08.878Z,100761.59
2023-01-26T00:13:36.000Z,100755.47
2023-01-26T00:16:03.823Z,100753.00
2023-01-26T00:18:31.484Z,100758.16
2023-01-26T00:20:59.354Z,100741.22
2023-01-26T00:23:26.035Z,100748.94
2023-01-26T00:25:52.624Z,100743.91
2023-01-26T00:28:19.117Z,100744.78
2023-01-26T00:30:45.861Z,100749.13
2023-01-26T00:33:13.041Z,100742.16
2023-01-26T00:35:39.499Z,100746.59
2023-01-26T00:38:06.031Z,100746.47
2023-01-26T00:40:32.560Z,100738.63
2023-01-26T00:42:59.306Z,100741.88
2023-01-26T00:45:25.756Z,100736.59
2023-01-26T00:47:52.301Z,100744.50
2023-01-26T00:50:18.930Z,100725.34
2023-01-26T00:52:45.362Z,100728.81
2023-01-26T00:55:12.495Z,100731.41
2023-01-26T00:57:39.363Z,100730.53
2023-01-26T01:00:06.665Z,100721.75
2023-01-26T01:02:33.125Z,100725.84
2023-01-26T01:04:59.576Z,100735.75
2023-01-26T01:07:26.198Z,100731.50
2023-01-26T01:09:52.646Z,100733.19
2023-01-26T01:12:19.090Z,100730.63
2023-01-26T01:14:46.023Z,100733.38
2023-01-26T01:17:15.338Z,100732.16
2023-01-26T01:19:41.876Z,100721.81
2023-01-26T01:22:08.365Z,100718.88
2023-01-26T01:24:35.322Z,100717.94
2023-01-26T01:27:01.987Z,100704.44
2023-01-26T01:29:28.574Z,100699.00
2023-01-26T01:31:55.268Z,100685.00
2023-01-26T01:34:21.720Z,100693.72
2023-01-26T01:36:48.255Z,100691.38
2023-01-26T01:41:41.271Z,100679.72
2023-01-26T01:44:14.680Z,100676.38
2023-01-26T01:46:46.192Z,100674.53
2023-01-26T01:49:21.523Z,100663.59
2023-01-26T01:51:52.736Z,100661.25
2023-01-26T01:54:23.312Z,100660.06
2023-01-26T01:56:52.950Z,100663.97
2023-01-26T01:59:21.310Z,100648.19
2023-01-26T02:01:49.610Z,100648.34
2023-01-26T02:04:16.138Z,100650.13
2023-01-26T02:06:47.965Z,100652.09
2023-01-26T02:09:34.749Z,100652.78
2023-01-26T02:12:02.811Z,100650.19
2023-01-26T02:14:29.495Z,100653.16
2023-01-26T02:16:55.973Z,100642.84
2023-01-26T02:19:30.600Z,100641.63
2023-01-26T02:22:01.137Z,100641.91
2023-01-26T02:24:29.867Z,100635.63
2023-01-26T02:26:56.485Z,100637.94
2023-01-26T02:29:23.182Z,100632.44
2023-01-26T02:31:49.751Z,100631.19
2023-01-26T02:34:16.269Z,100625.97
2023-01-26T02:36:42.722Z,100630.59
2023-01-26T02:39:14.798Z,100620.31
2023-01-26T02:42:00.726Z,100622.84
2023-01-26T02:44:27.702Z,100625.19
2023-01-26T02:46:54.172Z,100629.47
2023-01-26T02:49:39.252Z,100620.84
2023-01-26T02:52:06.707Z,100619.66
2023-01-26T02:54:51.637Z,100613.94
2023-01-26T02:57:18.254Z,100613.22
2023-01-26T02:59:44.820Z,100600.34
2023-01-26T03:02:11.817Z,100593.25
2023-01-26T03:04:38.360Z,100590.78
2023-01-26T03:07:05.245Z,100590.41
2023-01-26T03:09:31.767Z,100590.78
2023-01-26T03:11:58.258Z,100589.91
2023-01-26T03:14:24.722Z,100584.97
2023-01-26T03:16:51.239Z,100590.25
2023-01-26T03:19:36.327Z,100578.81
2023-01-26T03:22:21.421Z,100578.53
2023-01-26T03:25:06.617Z,100575.28
2023-01-26T03:27:45.197Z,100569.44
2023-01-26T03:30:13.103Z,100563.06
2023-01-26T03:32:40.070Z,100567.09
2023-01-26T03:35:07.411Z,100558.25
2023-01-26T03:37:36.886Z,100561.66
2023-01-26T03:40:25.022Z,100558.13
2023-01-26T03:43:10.361Z,100558.75
2023-01-26T03:45:55.589Z,100565.63
2023-01-26T03:48:40.987Z,100550.91
2023-01-26T03:51:26.390Z,100549.94
2023-01-26T03:54:11.688Z,100545.38
2023-01-26T03:56:38.464Z,100548.84
2023-01-26T03:59:09.687Z,100539.16
2023-01-26T04:01:38.182Z,100544.34
2023-01-26T04:04:24.639Z,100541.09
2023-01-26T04:07:09.983Z,100539.88
2023-01-26T04:09:37.374Z,100537.75
2023-01-26T04:12:05.191Z,100529.72
2023-01-26T04:14:50.819Z,100533.09
2023-01-26T04:17:37.208Z,100532.81
2023-01-26T04:20:26.611Z,100532.50
2023-01-26T04:22:53.172Z,100532.25
2023-01-26T04:25:21.557Z,100534.78
2023-01-26T04:27:48.016Z,100541.88
2023-01-26T04:30:15.915Z,100539.88
2023-01-26T04:32:42.591Z,100543.75
2023-01-26T04:35:09.905Z,100539.25
2023-01-26T04:37:36.451Z,100539.16
2023-01-26T04:40:04.247Z,100539.16
2023-01-26T04:42:30.776Z,100534.78
2023-01-26T04:44:57.328Z,100530.81
2023-01-26T04:47:23.801Z,100539.28
2023-01-26T04:49:50.451Z,100535.84
2023-01-26T04:52:16.991Z,100541.13
2023-01-26T04:54:43.576Z,100539.91
2023-01-26T04:57:10.057Z,100534.63
2023-01-26T04:59:36.996Z,100535.28
2023-01-26T05:02:03.572Z,100527.00
2023-01-26T05:04:30.269Z,100521.00
2023-01-26T05:06:56.842Z,100524.06
2023-01-26T05:09:23.331Z,100525.00
2023-01-26T05:11:49.790Z,100520.75
2023-01-26T05:14:16.452Z,100525.16
2023-01-26T05:16:42.982Z,100520.97
2023-01-26T05:19:09.500Z,100528.22
2023-01-26T05:21:36.098Z,100516.84
2023-01-26T05:24:02.643Z,100520.38
2023-01-26T05:26:29.330Z,100515.03
2023-01-26T05:28:55.955Z,100513.97
2023-01-26T05:31:22.585Z,100520.91
2023-01-26T05:33:49.087Z,100522.03
2023-01-26T05:36:15.753Z,100506.06
2023-01-26T05:38:42.217Z,100511.91
2023-01-26T05:41:08.725Z,100510.03
2023-01-26T05:43:35.316Z,100513.88
2023-01-26T05:46:01.896Z,100512.91
2023-01-26T05:48:28.395Z,100509.34
2023-01-26T05:50:56.982Z,100507.66
2023-01-26T05:53:23.529Z,100509.50
2023-01-26T05:55:50.001Z,100518.81
2023-01-26T05:58:16.487Z,100520.59
2023-01-26T06:00:42.969Z,100523.25
2023-01-26T06:03:09.444Z,100525.88
2023-01-26T06:05:35.977Z,100522.34
2023-01-26T06:08:02.457Z,100522.81
2023-01-26T06:10:29.009Z,100529.16
2023-01-26T06:12:55.469Z,100519.16
2023-01-26T06:15:22.009Z,100521.00
2023-01-26T06:17:48.613Z,100524.47
2023-01-26T06:20:15.220Z,100522.66
2023-01-26T06:22:41.732Z,100520.03
2023-01-26T06:25:08.638Z,100523.66
2023-01-26T06:27:36.047Z,100513.59
2023-01-26T06:30:05.383Z,100513.13
2023-01-26T06:32:31.868Z,100510.97
2023-01-26T06:34:58.326Z,100514.19
2023-01-26T06:37:24.853Z,100515.81
2023-01-26T06:39:51.347Z,100516.81
2023-01-26T06:42:18.012Z,100510.69
2023-01-26T06:44:44.504Z,100514.06
2023-01-26T06:47:12.633Z,100513.44
2023-01-26T06:49:39.230Z,100507.56
2023-01-26T06:52:23.310Z,100503.06
2023-01-26T06:54:50.889Z,100502.84
2023-01-26T06:57:17.481Z,100495.44
2023-01-26T06:59:44.018Z,100489.53
2023-01-26T07:02:21.149Z,100491.94
2023-01-26T07:04:48.760Z,100503.69
2023-01-26T07:07:15.560Z,100499.88
2023-01-26T07:09:42.081Z,100504.53
2023-01-26T07:12:09.546Z,100498.19
2023-01-26T07:14:36.256Z,100500.72
2023-01-26T07:17:02.711Z,100503.91
2023-01-26T07:19:31.309Z,100497.28
2023-01-26T07:21:57.823Z,100498.19
2023-01-26T07:24:24.844Z,100486.31
2023-01-26T07:26:51.705Z,100489.72
2023-01-26T07:29:18.350Z,100497.72
2023-01-26T07:31:44.842Z,100487.09
2023-01-26T07:34:12.418Z,100492.66
2023-01-26T07:36:38.989Z,100495.44
2023-01-26T07:39:08.407Z,100489.13
2023-01-26T07:41:35.297Z,100481.75
2023-01-26T07:44:01.960Z,100482.13
2023-01-26T07:46:28.658Z,100477.78
2023-01-26T07:48:55.253Z,100474.41
2023-01-26T07:51:21.851Z,100479.41
2023-01-26T07:53:49.918Z,100488.22
2023-01-26T07:56:19.618Z,100487.69
2023-01-26T07:58:53.208Z,100484.38
2023-01-26T08:01:20.196Z,100493.50
2023-01-26T08:03:50.654Z,100490.97
2023-01-26T08:06:18.484Z,100484.88
2023-01-26T08:08:46.531Z,100495.28
2023-01-26T08:11:13.290Z,100491.00
2023-01-26T08:13:39.923Z,100481.31
2023-01-26T08:16:12.926Z,100483.31
2023-01-26T08:18:40.544Z,100486.63
2023-01-26T08:21:07.140Z,100493.59
2023-01-26T08:23:33.757Z,100486.66
2023-01-26T08:26:12.059Z,100487.28
2023-01-26T08:28:38.655Z,100486.47
2023-01-26T08:31:06.932Z,100485.53
2023-01-26T08:33:34.006Z,100482.09
2023-01-26T08:36:04.728Z,100477.63
2023-01-26T08:38:32.267Z,100472.28
2023-01-26T08:40:59.460Z,100475.78
2023-01-26T08:43:25.968Z,100479.94
2023-01-26T08:45:52.600Z,100483.00
2023-01-26T08:48:19.093Z,100494.41
2023-01-26T08:50:46.652Z,100488.56
2023-01-26T08:53:13.235Z,100489.22
2023-01-26T08:55:39.839Z,100495.63
2023-01-26T08:58:06.281Z,100488.84
2023-01-26T09:00:33.283Z,100494.06
2023-01-26T09:03:01.535Z,100499.78
2023-01-26T09:05:31.839Z,100502.53
2023-01-26T09:07:58.339Z,100503.91
2023-01-26T09:10:24.943Z,100501.38
2023-01-26T09:12:51.608Z,100506.25
2023-01-26T09:15:18.090Z,100506.38
2023-01-26T09:17:44.697Z,100510.63
2023-01-26T09:20:12.195Z,100513.47
2023-01-26T09:22:38.885Z,100503.28
2023-01-26T09:25:05.884Z,100513.16
2023-01-26T09:27:32.413Z,100517.50
2023-01-26T09:29:59.757Z,100508.53
2023-01-26T09:32:26.264Z,100509.63
2023-01-26T09:34:52.894Z,100505.47
2023-01-26T09:37:19.482Z,100502.38
2023-01-26T09:39:45.950Z,100490.16
2023-01-26T09:42:25.698Z,100496.44
2023-01-26T09:45:09.604Z,100497.94
2023-01-26T09:47:45.245Z,100486.63
2023-01-26T09:50:16.392Z,100497.59
2023-01-26T09:52:58.942Z,100498.84
2023-01-26T09:55:26.183Z,100489.28
2023-01-26T09:58:00.409Z,100488.00
2023-01-26T10:00:27.018Z,100483.63
2023-01-26T10:03:05.801Z,100481.94
2023-01-26T10:05:41.151Z,100480.78
2023-01-26T10:08:15.950Z,100478.22
2023-01-26T10:10:48.311Z,100468.84
2023-01-26T10:13:16.268Z,100463.06
2023-01-26T10:15:44.719Z,100458.94
2023-01-26T10:18:18.776Z,100473.28
2023-01-26T10:20:54.609Z,100466.03
2023-01-26T10:23:27.596Z,100461.81
2023-01-26T10:25:56.839Z,100455.94
2023-01-26T10:28:29.986Z,100446.59
2023-01-26T10:30:57.319Z,100443.09
2023-01-26T10:33:31.058Z,100448.91
2023-01-26T10:35:58.670Z,100442.91
2023-01-26T10:38:34.000Z,100434.97
2023-01-26T10:41:01.663Z,100440.56
2023-01-26T10:43:28.352Z,100441.72
2023-01-26T10:45:54.864Z,100430.19
2023-01-26T10:48:26.837Z,100429.56
2023-01-26T10:50:54.402Z,100424.19
2023-01-26T10:53:28.317Z,100426.78
2023-01-26T10:56:01.103Z,100422.03
2023-01-26T10:58:48.682Z,100413.16
2023-01-26T11:01:18.968Z,100405.25
2023-01-26T11:04:10.279Z,100396.91
2023-01-26T11:06:36.821Z,100395.59
2023-01-26T11:09:11.759Z,100404.47
2023-01-26T11:11:38.475Z,100399.34
2023-01-26T11:14:19.348Z,100396.53
2023-01-26T11:16:49.367Z,100390.41
2023-01-26T11:19:40.112Z,100390.53
2023-01-26T11:22:09.354Z,100381.59
2023-01-26T11:25:03.627Z,100378.28
2023-01-26T11:27:38.636Z,100381.53
2023-01-26T11:30:44.134Z,100371.94
2023-01-26T11:33:20.814Z,100371.09
2023-01-26T11:35:52.775Z,100371.91
2023-01-26T11:38:29.909Z,100371.13
2023-01-26T11:41:17.540Z,100372.22
2023-01-26T11:43:46.806Z,100378.03
2023-01-26T11:46:41.476Z,100365.31
2023-01-26T11:49:15.288Z,100359.28
2023-01-26T11:52:10.764Z,100361.50
2023-01-26T11:55:14.318Z,100352.34
2023-01-26T11:58:02.722Z,100352.19
2023-01-26T12:00:40.861Z,100357.97
2023-01-26T12:03:18.452Z,100351.53
2023-01-26T12:05:48.897Z,100342.88
2023-01-26T12:08:22.504Z,100352.19
2023-01-26T12:11:22.353Z,100351.72
2023-01-26T12:14:12.013Z,100350.50
2023-01-26T12:16:50.340Z,100343.41
2023-01-26T12:19:53.946Z,100346.63
2023-01-26T12:22:29.217Z,100348.81
2023-01-26T12:25:19.862Z,100342.66
2023-01-26T12:27:55.890Z,100340.53
2023-01-26T12:30:28.682Z,100333.09
2023-01-26T12:32:55.303Z,100340.22
2023-01-26T12:35:55.463Z,100340.19
2023-01-26T12:38:40.890Z,100346.88
2023-01-26T12:41:23.337Z,100336.31
2023-01-26T12:44:01.669Z,100340.69
2023-01-26T12:46:32.201Z,100330.16
2023-01-26T12:49:22.981Z,100332.78
2023-01-26T12:51:54.877Z,100329.75
2023-01-26T12:54:34.819Z,100339.19
2023-01-26T12:57:02.282Z,100336.63
2023-01-26T12:59:46.386Z,100345.88
2023-01-26T13:02:30.840Z,100333.59
2023-01-26T13:05:00.278Z,100334.88
2023-01-26T13:07:52.809Z,100338.84
2023-01-26T13:10:22.474Z,100333.44
2023-01-26T13:13:01.938Z,100324.31
2023-01-26T13:15:32.345Z,100327.34
2023-01-26T13:18:03.736Z,100323.22
2023-01-26T13:20:49.335Z,100320.59
2023-01-26T13:23:28.249Z,100321.22
2023-01-26T13:26:17.378Z,100320.50
2023-01-26T13:28:45.186Z,100316.09
2023-01-26T13:31:15.191Z,100310.63
2023-01-26T13:33:42.216Z,100311.97
2023-01-26T13:36:15.981Z,100312.66
2023-01-26T13:38:45.248Z,100307.28
2023-01-26T13:41:19.828Z,100312.81
2023-01-26T13:44:10.301Z,100308.00
2023-01-26T13:46:40.865Z,100310.63
2023-01-26T13:49:23.831Z,100316.28
2023-01-26T13:51:50.533Z,100304.72
2023-01-26T13:54:17.937Z,100313.84
2023-01-26T13:57:04.001Z,100307.56
2023-01-26T13:59:30.965Z,100306.66
2023-01-26T14:01:57.912Z,100303.09
2023-01-26T14:04:30.037Z,100310.09
2023-01-26T14:07:08.701Z,100313.31
2023-01-26T14:09:44.764Z,100308.75
2023-01-26T14:12:17.640Z,100299.88
2023-01-26T14:14:47.970Z,100306.44
2023-01-26T14:17:36.701Z,100306.38
2023-01-26T14:20:18.707Z,100301.28
2023-01-26T14:22:48.427Z,100299.75
2023-01-26T14:25:20.100Z,100302.50
2023-01-26T14:27:46.731Z,100302.97
2023-01-26T14:30:23.146Z,100298.53
2023-01-26T14:32:55.071Z,100294.25
2023-01-26T14:35:23.419Z,100294.66
2023-01-26T14:37:50.716Z,100294.19
2023-01-26T14:40:20.369Z,100296.03
2023-01-26T14:42:51.810Z,100287.59
2023-01-26T14:45:25.061Z,100294.53
2023-01-26T14:47:52.529Z,100294.00
2023-01-26T14:50:30.841Z,100296.38
2023-01-26T14:52:57.723Z,100293.47
2023-01-26T14:55:32.003Z,100291.63
2023-01-26T14:57:59.413Z,100289.63
2023-01-26T15:00:29.069Z,100284.19
2023-01-26T15:02:57.410Z,100282.19
2023-01-26T15:05:32.055Z,100286.59
2023-01-26T15:08:00.631Z,100289.00
2023-01-26T15:10:30.003Z,100291.03
2023-01-26T15:13:02.431Z,100283.66
2023-01-26T15:15:30.831Z,100287.19
2023-01-26T15:18:05.063Z,100281.34
2023-01-26T15:20:31.536Z,100282.13
2023-01-26T15:22:58.094Z,100281.66
2023-01-26T15:25:27.153Z,100274.75
2023-01-26T15:28:00.244Z,100276.53
2023-01-26T15:30:36.933Z,100271.31
2023-01-26T15:33:03.662Z,100280.28
2023-01-26T15:35:32.259Z,100278.75
2023-01-26T15:38:05.521Z,100274.69
2023-01-26T15:40:32.140Z,100275.00
2023-01-26T15:43:15.250Z,100290.19
2023-01-26T15:45:58.147Z,100279.91
2023-01-26T15:48:24.903Z,100291.97
2023-01-26T15:50:51.735Z,100291.38
2023-01-26T15:53:22.477Z,100292.59
2023-01-26T15:55:52.899Z,100296.25
2023-01-26T15:58:19.678Z,100296.50
2023-01-26T16:00:46.258Z,100299.41
2023-01-26T16:03:16.797Z,100299.34
2023-01-26T16:05:44.255Z,100303.94
2023-01-26T16:08:10.708Z,100299.88
2023-01-26T16:10:38.110Z,100300.38
2023-01-26T16:13:11.822Z,100302.38
2023-01-26T16:15:49.030Z,100302.28
2023-01-26T16:18:15.558Z,100302.38
2023-01-26T16:20:43.682Z,100304.06
2023-01-26T16:23:28.801Z,100299.13
2023-01-26T16:25:55.620Z,100303.16
2023-01-26T16:28:22.226Z,100307.69
2023-01-26T16:30:50.871Z,100304.28
2023-01-26T16:33:21.189Z,100303.34
2023-01-26T16:35:47.969Z,100302.50
2023-01-26T16:38:14.510Z,100307.13
2023-01-26T16:40:42.934Z,100290.50
2023-01-26T16:43:16.203Z,100302.72
2023-01-26T16:45:42.756Z,100292.88
2023-01-26T16:48:13.924Z,100289.19
2023-01-26T16:50:41.450Z,100297.88
2023-01-26T16:53:30.332Z,100292.88
2023-01-26T16:55:56.884Z,100295.97
2023-01-26T16:58:26.324Z,100293.00
2023-01-26T17:00:54.484Z,100305.81
2023-01-26T17:03:21.352Z,100300.19
2023-01-26T17:05:47.916Z,100308.09
2023-01-26T17:08:14.423Z,100307.50
2023-01-26T17:10:55.544Z,100303.34
2023-01-26T17:13:27.488Z,100303.63
2023-01-26T17:15:56.533Z,100293.28
2023-01-26T17:18:23.086Z,100288.44
2023-01-26T17:20:49.615Z,100300.13
2023-01-26T17:23:16.152Z,100286.97
2023-01-26T17:25:42.655Z,100294.06
2023-01-26T17:28:09.221Z,100293.81
2023-01-26T17:30:35.779Z,100288.31
2023-01-26T17:33:02.262Z,100287.78
2023-01-26T17:35:28.767Z,100283.13
2023-01-26T17:37:55.284Z,100281.47
2023-01-26T17:40:21.784Z,100281.16
2023-01-26T17:42:48.312Z,100277.97
2023-01-26T17:45:14.973Z,100265.34
2023-01-26T17:47:41.590Z,100270.97
2023-01-26T17:50:08.668Z,100270.91
2023-01-26T17:52:36.504Z,100272.75
2023-01-26T17:55:06.270Z,100277.16
2023-01-26T17:57:33.784Z,100281.63
2023-01-26T18:00:00.360Z,100284.91
2023-01-26T18:02:26.944Z,100284.97
2023-01-26T18:04:53.808Z,100280.75
2023-01-26T18:07:20.613Z,100288.75
2023-01-26T18:09:47.187Z,100290.59
2023-01-26T18:12:13.682Z,100294.53
2023-01-26T18:14:40.159Z,100292.97
2023-01-26T18:17:06.638Z,100299.38
2023-01-26T18:19:33.258Z,100299.91
2023-01-26T18:21:59.796Z,100295.03
2023-01-26T18:24:26.581Z,100295.44
2023-01-26T18:26:53.323Z,100294.75
2023-01-26T18:29:19.760Z,100295.69
2023-01-26T18:31:47.908Z,100296.53
2023-01-26T18:34:15.455Z,100291.53
2023-01-26T18:36:42.028Z,100293.31
2023-01-26T18:39:12.936Z,100288.91
2023-01-26T18:41:40.733Z,100286.59
2023-01-26T18:44:08.208Z,100300.03
2023-01-26T18:46:35.208Z,100297.53
2023-01-26T18:49:03.424Z,100294.91
2023-01-26T18:51:31.862Z,100286.59
2023-01-26T18:53:58.489Z,100287.16
2023-01-26T18:56:25.015Z,100290.72
2023-01-26T18:58:53.848Z,100304.25
2023-01-26T19:01:21.351Z,100300.75
2023-01-26T19:03:54.118Z,100291.31
2023-01-26T19:06:21.951Z,100294.00
2023-01-26T19:08:58.612Z,100293.69
2023-01-26T19:11:27.767Z,100302.84
2023-01-26T19:13:55.096Z,100295.53
2023-01-26T19:16:22.199Z,100298.56
2023-01-26T19:18:49.867Z,100297.97
2023-01-26T19:21:17.360Z,100300.03
2023-01-26T19:23:44.031Z,100302.59
2023-01-26T19:26:13.133Z,100299.22
2023-01-26T19:28:41.457Z,100305.69
2023-01-26T19:31:08.867Z,100306.59
2023-01-26T19:33:35.600Z,100303.19
2023-01-26T19:36:07.106Z,100305.13
2023-01-26T19:38:34.295Z,100298.75
2023-01-26T19:41:01.831Z,100294.72
2023-01-26T19:43:28.857Z,100298.75
2023-01-26T19:45:56.686Z,100307.81
2023-01-26T19:48:25.294Z,100306.28
2023-01-26T19:51:03.450Z,100303.97
2023-01-26T19:53:31.651Z,100299.19
2023-01-26T19:55:59.788Z,100293.22
2023-01-26T19:58:27.800Z,100297.66
2023-01-26T20:01:13.992Z,100296.75
2023-01-26T20:03:40.782Z,100301.81
2023-01-26T20:06:15.110Z,100303.50
2023-01-26T20:08:42.045Z,100298.50
2023-01-26T20:11:09.864Z,100296.91
2023-01-26T20:13:36.995Z,100289.75
2023-01-26T20:16:04.544Z,100295.22
2023-01-26T20:18:31.250Z,100295.53
2023-01-26T20:21:00.679Z,100295.66
2023-01-26T20:23:27.743Z,100284.28
2023-01-26T20:26:09.563Z,100283.22
2023-01-26T20:28:37.915Z,100284.44
2023-01-26T20:31:19.017Z,100278.91
2023-01-26T20:33:49.405Z,100281.81
2023-01-26T20:36:21.225Z,100281.06
2023-01-26T20:38:48.400Z,100287.28
2023-01-26T20:41:17.350Z,100287.66
2023-01-26T20:43:58.769Z,100283.91
2023-01-26T20:46:27.914Z,100288.16
2023-01-26T20:48:55.716Z,100283.91
2023-01-26T20:51:25.150Z,100281.81
2023-01-26T20:53:51.776Z,100298.38
2023-01-26T20:56:23.013Z,100293.44
2023-01-26T20:58:52.283Z,100282.53
2023-01-26T21:01:19.513Z,100282.53
2023-01-26T21:03:46.304Z,100277.53
2023-01-26T21:06:18.934Z,100280.09
2023-01-26T21:08:48.010Z,100276.78
2023-01-26T21:11:15.993Z,100272.16
2023-01-26T21:13:42.939Z,100270.47
2023-01-26T21:16:11.727Z,100276.16
2023-01-26T21:18:38.219Z,100271.84
2023-01-26T21:21:06.953Z,100273.47
2023-01-26T21:23:34.561Z,100282.44
2023-01-26T21:26:03.499Z,100279.22
2023-01-26T21:28:30.212Z,100278.22
2023-01-26T21:31:01.690Z,100280.94
2023-01-26T21:33:32.177Z,100285.38
2023-01-26T21:36:00.391Z,100280.09
2023-01-26T21:38:29.125Z,100280.31
2023-01-26T21:41:41.513Z,100281.22
2023-01-26T21:44:15.945Z,100285.66
2023-01-26T21:46:44.480Z,100285.81
2023-01-26T21:49:13.071Z,100279.22
2023-01-26T21:51:58.146Z,100283.06
2023-01-26T21:54:24.805Z,100280.94
2023-01-26T21:56:51.619Z,100278.59
2023-01-26T21:59:18.689Z,100289.22
2023-01-26T22:01:50.710Z,100278.00
2023-01-26T22:04:20.423Z,100278.84
2023-01-26T22:06:47.171Z,100283.22
2023-01-26T22:09:14.971Z,100279.84
2023-01-26T22:11:41.705Z,100274.59
2023-01-26T22:14:13.396Z,100281.59
2023-01-26T22:16:39.977Z,100280.78
2023-01-26T22:19:06.866Z,100280.66
2023-01-26T22:21:33.424Z,100269.69
2023-01-26T22:24:00.020Z,100267.84
2023-01-26T22:26:26.533Z,100273.84
2023-01-26T22:28:55.060Z,100274.59
2023-01-26T22:31:25.414Z,100265.00
2023-01-26T22:33:52.338Z,100260.94
2023-01-26T22:36:19.511Z,100266.25
2023-01-26T22:38:46.704Z,100268.00
2023-01-26T22:41:15.744Z,100262.88
2023-01-26T22:43:42.573Z,100268.44
2023-01-26T22:46:11.698Z,100272.72
2023-01-26T22:48:38.359Z,100265.53
2023-01-26T22:51:11.852Z,100273.44
2023-01-26T22:53:38.954Z,100271.84
2023-01-26T22:56:06.365Z,100274.44
2023-01-26T22:58:35.195Z,100276.16
2023-01-26T23:01:12.895Z,100277.47
2023-01-26T23:03:40.642Z,100277.69
2023-01-26T23:06:10.935Z,100269.63
2023-01-26T23:08:37.644Z,100269.63
2023-01-26T23:11:11.638Z,100273.94
2023-01-26T23:13:39.197Z,100273.88
2023-01-26T23:16:07.239Z,100260.88
2023-01-26T23:18:33.858Z,100261.88
2023-01-26T23:21:00.398Z,100258.19
2023-01-26T23:23:27.559Z,100250.34
2023-01-26T23:25:54.733Z,100249.41
2023-01-26T23:28:23.376Z,100246.97
2023-01-26T23:30:50.954Z,100250.84
2023-01-26T23:33:18.701Z,100251.09
2023-01-26T23:35:45.550Z,100253.69
2023-01-26T23:38:12.783Z,100247.56
2023-01-26T23:40:39.912Z,100242.94
2023-01-26T23:43:16.203Z,100246.56
2023-01-26T23:45:44.587Z,100253.69
2023-01-26T23:48:12.225Z,100246.19
2023-01-26T23:50:38.787Z,100241.88
2023-01-26T23:53:05.431Z,100247.09
2023-01-26T23:55:31.986Z,100241.56
2023-01-26T23:57:58.517Z,100242.50
